Airfield :
LOGIN :

Register | Disclaimer

   EN    FR    IT 

 










Legend :    VFR   Marginal VFR   IFR   Intensive IFR   Very Intensive IFR
Visi :
Ceiling :
>= 8 km
>= 3000ft
5 to 8 km
1000 to 3000 ft
1500m to 5 km
500 to 1000 ft
800 to 1500m
200 to 500 ft
< 800m
< 200 ft
Symbols :   Thunderstorms  Fog  Heavy snow  Heavy precipitations  Wind > 20 kt
SIGMETs :     Misc.  Thunderstorms  Icing  Turbulence  Mountain Waves  Volcanic Ashes






- Airport Elevation : 131 ft
- IATA code : TLL


EETN - Talinn

CURRENT METAR :
  • 260150Z 07012KT 1000 R08/P2000N +SN OVC014 M02/M03 Q0988 R08/09//95

EXPIRED METARs :
  • 260120Z 08012KT 1900 SN DRSN OVC021 M02/M03 Q0988 R08/09//95
  • 260050Z 08014KT 6000 -SN DRSN OVC036 M01/M04 Q0989 R08/09//95
  • 260020Z 09014KT 4200 SN OVC041 M01/M04 Q0989 R08/09//95
  • 252350Z 09014KT 9999 -SN FEW045 M01/M05 Q0989 R08/09//95
  • 252320Z 08014KT CAVOK M01/M05 Q0990 R08/09//95

TAF TAF EETN
Valid from the 26 at 00:00 until the 27 at 00:00 UTC


252305Z 2600/2624 09012KT 9000 SCT015 BKN025
BECMG 2600/2602 3000 SN BKN012 OVC020
TEMPO 2602/2612 1000 +SN BLSN VV008
BECMG 2603/2605 08018G30KT
TEMPO 2612/2621 2000 SHSN BR BKN006 BKN012CB



MET'MAP, your aeronautical weather chart ! - Copyright ORBIFLY December 2007 - Disclaimer

ORBIFLY MET'MAP TEAM :

Programming & Development : Alexandra Zaïnal
Concept & original design : Baudouin d'Aumeries
Assistance for programming : Marc-Olivier Méhu
Technical & hardware support : Manuel Goepfert

Contact : metmap@orbifly.com




SOURCES & CREDITS :

   NOAA